University Buffalo, New York
Current Conditions -  °F | °C
As of 8:54 AM on Friday 31 Oct 2014 (Local Time) from KBUF Reporting Station
Overcast Overcast  
Wind Chill: 39°   Ceiling: 6500
Heat Index: 43°   Visibility: 10mi
Dew Point: 39°   Wind: 7mph
Humidity: 86%   Direction: 150°SSE
Pressure: 29.96"   Gusts: NA
Location:  42.9393°N, 78.8401°W
Report Text: KBUF 311254Z 15006KT 10SM FEW029 OVC065 06/04 A2996 RMK AO2 RAB10E47 SLP150 P0000 T00610039
Loading
Personal Weather Stations






























Interactive Weather Map New forecast layout! Learn more

10-Day Weather Forecast

Advertisements
Track Severe Weather on mobile